sensor_id;sensor_type;location;lat;lon;timestamp;P1;durP1;ratioP1;P2;durP2;ratioP2
4248;SDS011;8404;48.752;12.922;2022-09-29T00:01:18;6.28;;;4.63;;
4248;SDS011;8404;48.752;12.922;2022-09-29T00:03:46;6.45;;;4.30;;
4248;SDS011;8404;48.752;12.922;2022-09-29T00:06:15;5.45;;;4.88;;
4248;SDS011;8404;48.752;12.922;2022-09-29T00:08:44;5.00;;;4.03;;
4248;SDS011;8404;48.752;12.922;2022-09-29T00:11:14;6.20;;;5.07;;
4248;SDS011;8404;48.752;12.922;2022-09-29T00:13:46;6.97;;;5.03;;
4248;SDS011;8404;48.752;12.922;2022-09-29T00:16:14;6.90;;;4.90;;
4248;SDS011;8404;48.752;12.922;2022-09-29T00:18:42;7.68;;;6.45;;
4248;SDS011;8404;48.752;12.922;2022-09-29T00:21:12;19.50;;;13.70;;
4248;SDS011;8404;48.752;12.922;2022-09-29T00:23:42;18.88;;;14.50;;
4248;SDS011;8404;48.752;12.922;2022-09-29T00:26:10;24.77;;;17.83;;
4248;SDS011;8404;48.752;12.922;2022-09-29T00:28:41;58.20;;;38.97;;
4248;SDS011;8404;48.752;12.922;2022-09-29T00:31:14;29.35;;;19.63;;
4248;SDS011;8404;48.752;12.922;2022-09-29T00:33:42;10.45;;;6.95;;
4248;SDS011;8404;48.752;12.922;2022-09-29T00:36:11;8.65;;;6.72;;
4248;SDS011;8404;48.752;12.922;2022-09-29T00:38:41;7.60;;;5.88;;
4248;SDS011;8404;48.752;12.922;2022-09-29T00:41:12;6.93;;;4.10;;
4248;SDS011;8404;48.752;12.922;2022-09-29T00:43:49;5.63;;;4.00;;
4248;SDS011;8404;48.752;12.922;2022-09-29T00:46:21;5.18;;;4.05;;
4248;SDS011;8404;48.752;12.922;2022-09-29T00:48:57;5.30;;;4.05;;
4248;SDS011;8404;48.752;12.922;2022-09-29T00:51:28;5.53;;;4.00;;
4248;SDS011;8404;48.752;12.922;2022-09-29T00:53:57;6.15;;;5.20;;
4248;SDS011;8404;48.752;12.922;2022-09-29T00:56:27;9.48;;;6.53;;
4248;SDS011;8404;48.752;12.922;2022-09-29T00:58:58;12.55;;;10.98;;
4248;SDS011;8404;48.752;12.922;2022-09-29T01:01:29;11.75;;;9.90;;
4248;SDS011;8404;48.752;12.922;2022-09-29T01:06:46;10.05;;;6.38;;
4248;SDS011;8404;48.752;12.922;2022-09-29T01:09:18;5.65;;;4.47;;
4248;SDS011;8404;48.752;12.922;2022-09-29T01:11:50;5.10;;;3.70;;
4248;SDS011;8404;48.752;12.922;2022-09-29T01:14:24;3.83;;;3.00;;
4248;SDS011;8404;48.752;12.922;2022-09-29T01:16:54;3.83;;;3.17;;
4248;SDS011;8404;48.752;12.922;2022-09-29T01:22:36;3.80;;;3.40;;
4248;SDS011;8404;48.752;12.922;2022-09-29T01:25:47;4.38;;;3.17;;
4248;SDS011;8404;48.752;12.922;2022-09-29T01:31:33;3.97;;;2.92;;
4248;SDS011;8404;48.752;12.922;2022-09-29T01:34:05;4.18;;;3.55;;
4248;SDS011;8404;48.752;12.922;2022-09-29T01:36:43;4.13;;;3.15;;
4248;SDS011;8404;48.752;12.922;2022-09-29T01:39:18;4.10;;;3.08;;
4248;SDS011;8404;48.752;12.922;2022-09-29T01:41:56;5.25;;;3.35;;
4248;SDS011;8404;48.752;12.922;2022-09-29T01:44:30;5.85;;;3.50;;
4248;SDS011;8404;48.752;12.922;2022-09-29T01:47:04;4.38;;;3.05;;
4248;SDS011;8404;48.752;12.922;2022-09-29T01:49:35;4.57;;;3.40;;
4248;SDS011;8404;48.752;12.922;2022-09-29T01:52:08;6.10;;;3.78;;
4248;SDS011;8404;48.752;12.922;2022-09-29T01:54:50;5.18;;;3.75;;
4248;SDS011;8404;48.752;12.922;2022-09-29T01:57:24;6.80;;;3.85;;
4248;SDS011;8404;48.752;12.922;2022-09-29T01:59:57;4.35;;;3.55;;
4248;SDS011;8404;48.752;12.922;2022-09-29T02:02:40;6.45;;;3.88;;
4248;SDS011;8404;48.752;12.922;2022-09-29T02:05:14;4.28;;;3.33;;
4248;SDS011;8404;48.752;12.922;2022-09-29T02:07:46;5.07;;;3.85;;
4248;SDS011;8404;48.752;12.922;2022-09-29T02:10:16;6.05;;;3.88;;
4248;SDS011;8404;48.752;12.922;2022-09-29T02:12:48;5.72;;;3.78;;
4248;SDS011;8404;48.752;12.922;2022-09-29T02:15:20;5.10;;;3.25;;
4248;SDS011;8404;48.752;12.922;2022-09-29T02:17:53;4.00;;;3.42;;
4248;SDS011;8404;48.752;12.922;2022-09-29T02:20:26;3.97;;;3.42;;
4248;SDS011;8404;48.752;12.922;2022-09-29T02:22:54;4.85;;;3.63;;
4248;SDS011;8404;48.752;12.922;2022-09-29T02:25:22;4.13;;;3.60;;
4248;SDS011;8404;48.752;12.922;2022-09-29T02:27:51;4.47;;;3.53;;
4248;SDS011;8404;48.752;12.922;2022-09-29T02:30:19;5.63;;;4.13;;
4248;SDS011;8404;48.752;12.922;2022-09-29T02:32:48;4.63;;;3.80;;
4248;SDS011;8404;48.752;12.922;2022-09-29T02:35:17;5.55;;;4.38;;
4248;SDS011;8404;48.752;12.922;2022-09-29T02:37:47;5.68;;;3.80;;
4248;SDS011;8404;48.752;12.922;2022-09-29T02:40:31;5.22;;;4.15;;
4248;SDS011;8404;48.752;12.922;2022-09-29T02:43:12;6.38;;;4.40;;
4248;SDS011;8404;48.752;12.922;2022-09-29T02:45:54;4.45;;;3.55;;
4248;SDS011;8404;48.752;12.922;2022-09-29T02:48:46;5.43;;;3.75;;
4248;SDS011;8404;48.752;12.922;2022-09-29T02:51:28;5.57;;;3.97;;
4248;SDS011;8404;48.752;12.922;2022-09-29T02:54:06;4.30;;;3.50;;
4248;SDS011;8404;48.752;12.922;2022-09-29T02:56:46;5.00;;;3.92;;
4248;SDS011;8404;48.752;12.922;2022-09-29T02:59:22;3.97;;;3.58;;
4248;SDS011;8404;48.752;12.922;2022-09-29T03:01:54;3.83;;;3.33;;
4248;SDS011;8404;48.752;12.922;2022-09-29T03:04:24;4.80;;;3.15;;
4248;SDS011;8404;48.752;12.922;2022-09-29T03:06:55;5.05;;;3.85;;
4248;SDS011;8404;48.752;12.922;2022-09-29T03:09:23;5.47;;;3.38;;
4248;SDS011;8404;48.752;12.922;2022-09-29T03:11:52;4.50;;;3.65;;
4248;SDS011;8404;48.752;12.922;2022-09-29T03:14:20;5.95;;;3.70;;
4248;SDS011;8404;48.752;12.922;2022-09-29T03:16:48;4.25;;;3.20;;
4248;SDS011;8404;48.752;12.922;2022-09-29T03:19:16;4.57;;;3.50;;
4248;SDS011;8404;48.752;12.922;2022-09-29T03:21:44;4.38;;;3.55;;
4248;SDS011;8404;48.752;12.922;2022-09-29T03:24:14;3.97;;;3.20;;
4248;SDS011;8404;48.752;12.922;2022-09-29T03:26:42;3.85;;;2.63;;
4248;SDS011;8404;48.752;12.922;2022-09-29T03:29:10;4.63;;;3.10;;
4248;SDS011;8404;48.752;12.922;2022-09-29T03:31:38;4.47;;;3.05;;
4248;SDS011;8404;48.752;12.922;2022-09-29T03:34:07;4.38;;;3.15;;
4248;SDS011;8404;48.752;12.922;2022-09-29T03:36:35;3.83;;;2.65;;
4248;SDS011;8404;48.752;12.922;2022-09-29T03:39:03;3.63;;;2.63;;
4248;SDS011;8404;48.752;12.922;2022-09-29T03:41:32;3.53;;;2.90;;
4248;SDS011;8404;48.752;12.922;2022-09-29T03:44:01;5.40;;;3.35;;
4248;SDS011;8404;48.752;12.922;2022-09-29T03:46:29;3.50;;;2.50;;
4248;SDS011;8404;48.752;12.922;2022-09-29T03:48:57;4.18;;;2.63;;
4248;SDS011;8404;48.752;12.922;2022-09-29T03:51:25;4.50;;;2.67;;
4248;SDS011;8404;48.752;12.922;2022-09-29T03:53:53;4.20;;;2.97;;
4248;SDS011;8404;48.752;12.922;2022-09-29T03:56:21;2.65;;;2.42;;
4248;SDS011;8404;48.752;12.922;2022-09-29T03:58:51;3.88;;;2.25;;
4248;SDS011;8404;48.752;12.922;2022-09-29T04:01:19;4.13;;;2.20;;
4248;SDS011;8404;48.752;12.922;2022-09-29T04:03:47;3.35;;;2.60;;
4248;SDS011;8404;48.752;12.922;2022-09-29T04:06:16;4.15;;;2.45;;
4248;SDS011;8404;48.752;12.922;2022-09-29T04:08:44;3.33;;;2.40;;
4248;SDS011;8404;48.752;12.922;2022-09-29T04:11:14;3.90;;;2.30;;
4248;SDS011;8404;48.752;12.922;2022-09-29T04:13:42;2.58;;;2.10;;
4248;SDS011;8404;48.752;12.922;2022-09-29T04:16:12;3.58;;;2.47;;
4248;SDS011;8404;48.752;12.922;2022-09-29T04:18:40;2.70;;;2.10;;
4248;SDS011;8404;48.752;12.922;2022-09-29T04:21:08;3.67;;;2.50;;
4248;SDS011;8404;48.752;12.922;2022-09-29T04:23:38;3.25;;;2.00;;
4248;SDS011;8404;48.752;12.922;2022-09-29T04:26:06;3.42;;;2.28;;
4248;SDS011;8404;48.752;12.922;2022-09-29T04:28:35;3.70;;;2.28;;
4248;SDS011;8404;48.752;12.922;2022-09-29T04:31:04;2.92;;;2.10;;
4248;SDS011;8404;48.752;12.922;2022-09-29T04:33:33;2.10;;;1.83;;
4248;SDS011;8404;48.752;12.922;2022-09-29T04:36:01;2.97;;;2.10;;
4248;SDS011;8404;48.752;12.922;2022-09-29T04:38:30;2.85;;;2.10;;
4248;SDS011;8404;48.752;12.922;2022-09-29T04:40:58;4.57;;;2.35;;
4248;SDS011;8404;48.752;12.922;2022-09-29T04:43:26;3.25;;;2.08;;
4248;SDS011;8404;48.752;12.922;2022-09-29T04:46:00;3.03;;;1.42;;
4248;SDS011;8404;48.752;12.922;2022-09-29T04:48:29;3.72;;;1.88;;
4248;SDS011;8404;48.752;12.922;2022-09-29T04:51:09;3.13;;;1.50;;
4248;SDS011;8404;48.752;12.922;2022-09-29T04:53:37;5.20;;;1.75;;
4248;SDS011;8404;48.752;12.922;2022-09-29T04:56:06;2.40;;;1.50;;
4248;SDS011;8404;48.752;12.922;2022-09-29T04:58:34;1.92;;;1.65;;
4248;SDS011;8404;48.752;12.922;2022-09-29T05:01:03;3.70;;;1.90;;
4248;SDS011;8404;48.752;12.922;2022-09-29T05:03:33;3.35;;;1.92;;
4248;SDS011;8404;48.752;12.922;2022-09-29T05:06:01;2.63;;;1.92;;
4248;SDS011;8404;48.752;12.922;2022-09-29T05:08:31;3.50;;;2.13;;
4248;SDS011;8404;48.752;12.922;2022-09-29T05:11:01;3.22;;;2.00;;
4248;SDS011;8404;48.752;12.922;2022-09-29T05:13:30;4.72;;;1.95;;
4248;SDS011;8404;48.752;12.922;2022-09-29T05:15:58;3.10;;;2.10;;
4248;SDS011;8404;48.752;12.922;2022-09-29T05:18:28;2.88;;;2.25;;
4248;SDS011;8404;48.752;12.922;2022-09-29T05:21:00;5.03;;;2.45;;
4248;SDS011;8404;48.752;12.922;2022-09-29T05:23:51;2.88;;;2.47;;
4248;SDS011;8404;48.752;12.922;2022-09-29T05:26:19;3.38;;;2.20;;
4248;SDS011;8404;48.752;12.922;2022-09-29T05:28:48;4.72;;;2.33;;
4248;SDS011;8404;48.752;12.922;2022-09-29T05:31:16;2.80;;;1.92;;
4248;SDS011;8404;48.752;12.922;2022-09-29T05:33:45;4.03;;;2.15;;
4248;SDS011;8404;48.752;12.922;2022-09-29T05:36:13;3.47;;;1.92;;
4248;SDS011;8404;48.752;12.922;2022-09-29T05:38:41;2.22;;;1.80;;
4248;SDS011;8404;48.752;12.922;2022-09-29T05:41:10;2.75;;;2.20;;
4248;SDS011;8404;48.752;12.922;2022-09-29T05:43:39;4.22;;;2.38;;
4248;SDS011;8404;48.752;12.922;2022-09-29T05:46:08;3.42;;;2.58;;
4248;SDS011;8404;48.752;12.922;2022-09-29T05:48:37;4.40;;;2.33;;
4248;SDS011;8404;48.752;12.922;2022-09-29T05:51:06;4.32;;;3.03;;
4248;SDS011;8404;48.752;12.922;2022-09-29T05:53:36;3.20;;;2.25;;
4248;SDS011;8404;48.752;12.922;2022-09-29T05:56:04;3.10;;;2.38;;
4248;SDS011;8404;48.752;12.922;2022-09-29T05:58:34;4.22;;;2.80;;
4248;SDS011;8404;48.752;12.922;2022-09-29T06:01:04;3.35;;;2.40;;
4248;SDS011;8404;48.752;12.922;2022-09-29T06:03:33;3.13;;;2.45;;
4248;SDS011;8404;48.752;12.922;2022-09-29T06:06:05;3.63;;;2.13;;
4248;SDS011;8404;48.752;12.922;2022-09-29T06:08:34;3.40;;;2.40;;
4248;SDS011;8404;48.752;12.922;2022-09-29T06:11:03;3.58;;;2.70;;
4248;SDS011;8404;48.752;12.922;2022-09-29T06:13:32;3.83;;;2.58;;
4248;SDS011;8404;48.752;12.922;2022-09-29T06:16:04;5.60;;;2.85;;
4248;SDS011;8404;48.752;12.922;2022-09-29T06:18:32;3.72;;;2.55;;
4248;SDS011;8404;48.752;12.922;2022-09-29T06:21:01;2.90;;;2.35;;
4248;SDS011;8404;48.752;12.922;2022-09-29T06:23:30;3.42;;;2.60;;
4248;SDS011;8404;48.752;12.922;2022-09-29T06:25:59;3.05;;;2.38;;
4248;SDS011;8404;48.752;12.922;2022-09-29T06:28:30;3.53;;;2.50;;
4248;SDS011;8404;48.752;12.922;2022-09-29T06:31:00;5.40;;;2.65;;
4248;SDS011;8404;48.752;12.922;2022-09-29T06:33:31;3.45;;;2.80;;
4248;SDS011;8404;48.752;12.922;2022-09-29T06:36:02;3.53;;;2.40;;
4248;SDS011;8404;48.752;12.922;2022-09-29T06:38:52;3.45;;;2.50;;
4248;SDS011;8404;48.752;12.922;2022-09-29T06:41:20;4.22;;;3.03;;
4248;SDS011;8404;48.752;12.922;2022-09-29T06:43:48;3.38;;;2.65;;
4248;SDS011;8404;48.752;12.922;2022-09-29T06:46:18;3.85;;;2.67;;
4248;SDS011;8404;48.752;12.922;2022-09-29T06:48:53;3.30;;;2.38;;
4248;SDS011;8404;48.752;12.922;2022-09-29T06:51:22;4.05;;;2.55;;
4248;SDS011;8404;48.752;12.922;2022-09-29T06:54:03;3.38;;;2.67;;
4248;SDS011;8404;48.752;12.922;2022-09-29T06:56:38;4.57;;;3.13;;
4248;SDS011;8404;48.752;12.922;2022-09-29T06:59:07;4.85;;;2.92;;
4248;SDS011;8404;48.752;12.922;2022-09-29T07:01:37;3.83;;;3.17;;
4248;SDS011;8404;48.752;12.922;2022-09-29T07:04:05;4.20;;;2.92;;
4248;SDS011;8404;48.752;12.922;2022-09-29T07:06:33;5.40;;;3.78;;
4248;SDS011;8404;48.752;12.922;2022-09-29T07:09:01;5.30;;;3.70;;
4248;SDS011;8404;48.752;12.922;2022-09-29T07:11:29;5.65;;;3.58;;
4248;SDS011;8404;48.752;12.922;2022-09-29T07:13:58;3.60;;;2.88;;
4248;SDS011;8404;48.752;12.922;2022-09-29T07:16:26;4.68;;;3.30;;
4248;SDS011;8404;48.752;12.922;2022-09-29T07:18:55;4.18;;;3.42;;
4248;SDS011;8404;48.752;12.922;2022-09-29T07:21:23;6.30;;;3.20;;
4248;SDS011;8404;48.752;12.922;2022-09-29T07:23:51;4.53;;;2.67;;
4248;SDS011;8404;48.752;12.922;2022-09-29T07:26:26;3.55;;;2.83;;
4248;SDS011;8404;48.752;12.922;2022-09-29T07:28:55;3.13;;;2.70;;
4248;SDS011;8404;48.752;12.922;2022-09-29T07:31:23;3.45;;;2.53;;
4248;SDS011;8404;48.752;12.922;2022-09-29T07:33:51;2.75;;;2.00;;
4248;SDS011;8404;48.752;12.922;2022-09-29T07:36:21;3.20;;;2.40;;
4248;SDS011;8404;48.752;12.922;2022-09-29T07:38:49;3.75;;;2.17;;
4248;SDS011;8404;48.752;12.922;2022-09-29T07:41:19;3.58;;;2.20;;
4248;SDS011;8404;48.752;12.922;2022-09-29T07:43:48;4.20;;;2.10;;
4248;SDS011;8404;48.752;12.922;2022-09-29T07:46:16;3.08;;;2.20;;
4248;SDS011;8404;48.752;12.922;2022-09-29T07:48:44;3.60;;;2.70;;
4248;SDS011;8404;48.752;12.922;2022-09-29T07:51:13;3.35;;;2.20;;
4248;SDS011;8404;48.752;12.922;2022-09-29T07:53:44;2.35;;;1.63;;
4248;SDS011;8404;48.752;12.922;2022-09-29T07:56:13;4.25;;;2.67;;
4248;SDS011;8404;48.752;12.922;2022-09-29T07:58:44;3.90;;;2.42;;
4248;SDS011;8404;48.752;12.922;2022-09-29T08:01:13;4.18;;;2.47;;
4248;SDS011;8404;48.752;12.922;2022-09-29T08:03:42;5.95;;;3.42;;
4248;SDS011;8404;48.752;12.922;2022-09-29T08:06:15;5.78;;;3.10;;
4248;SDS011;8404;48.752;12.922;2022-09-29T08:08:44;3.83;;;2.50;;
4248;SDS011;8404;48.752;12.922;2022-09-29T08:11:25;5.95;;;2.97;;
4248;SDS011;8404;48.752;12.922;2022-09-29T08:13:57;4.35;;;3.17;;
4248;SDS011;8404;48.752;12.922;2022-09-29T08:16:26;4.20;;;3.00;;
4248;SDS011;8404;48.752;12.922;2022-09-29T08:18:55;4.97;;;3.40;;
4248;SDS011;8404;48.752;12.922;2022-09-29T08:21:23;3.88;;;2.80;;
4248;SDS011;8404;48.752;12.922;2022-09-29T08:23:53;4.65;;;2.78;;
4248;SDS011;8404;48.752;12.922;2022-09-29T08:26:21;3.45;;;2.63;;
4248;SDS011;8404;48.752;12.922;2022-09-29T08:29:07;4.53;;;2.67;;
4248;SDS011;8404;48.752;12.922;2022-09-29T08:31:41;5.30;;;3.38;;
4248;SDS011;8404;48.752;12.922;2022-09-29T08:34:10;3.40;;;2.70;;
4248;SDS011;8404;48.752;12.922;2022-09-29T08:36:40;4.15;;;3.13;;
4248;SDS011;8404;48.752;12.922;2022-09-29T08:39:10;5.88;;;3.03;;
4248;SDS011;8404;48.752;12.922;2022-09-29T08:41:48;4.40;;;3.45;;
4248;SDS011;8404;48.752;12.922;2022-09-29T08:44:21;5.25;;;3.10;;
4248;SDS011;8404;48.752;12.922;2022-09-29T08:47:05;3.45;;;2.45;;
4248;SDS011;8404;48.752;12.922;2022-09-29T08:49:41;4.40;;;3.17;;
4248;SDS011;8404;48.752;12.922;2022-09-29T08:52:14;4.43;;;3.38;;
4248;SDS011;8404;48.752;12.922;2022-09-29T08:54:46;4.28;;;3.58;;
4248;SDS011;8404;48.752;12.922;2022-09-29T08:57:18;3.97;;;3.20;;
4248;SDS011;8404;48.752;12.922;2022-09-29T08:59:49;6.30;;;3.28;;
4248;SDS011;8404;48.752;12.922;2022-09-29T09:02:29;4.97;;;3.53;;
4248;SDS011;8404;48.752;12.922;2022-09-29T09:05:25;4.75;;;2.88;;
4248;SDS011;8404;48.752;12.922;2022-09-29T09:08:04;4.72;;;2.97;;
4248;SDS011;8404;48.752;12.922;2022-09-29T09:10:44;4.57;;;2.90;;
4248;SDS011;8404;48.752;12.922;2022-09-29T09:13:18;3.65;;;2.80;;
4248;SDS011;8404;48.752;12.922;2022-09-29T09:16:01;5.00;;;2.50;;
4248;SDS011;8404;48.752;12.922;2022-09-29T09:18:47;3.20;;;2.20;;
4248;SDS011;8404;48.752;12.922;2022-09-29T09:21:30;3.40;;;2.33;;
4248;SDS011;8404;48.752;12.922;2022-09-29T09:24:08;2.72;;;1.70;;
4248;SDS011;8404;48.752;12.922;2022-09-29T09:26:49;3.50;;;2.42;;
4248;SDS011;8404;48.752;12.922;2022-09-29T09:29:18;2.47;;;1.88;;
4248;SDS011;8404;48.752;12.922;2022-09-29T09:31:53;3.30;;;2.05;;
4248;SDS011;8404;48.752;12.922;2022-09-29T09:34:28;3.22;;;2.20;;
4248;SDS011;8404;48.752;12.922;2022-09-29T09:37:10;2.60;;;2.00;;
4248;SDS011;8404;48.752;12.922;2022-09-29T09:39:45;3.60;;;2.30;;
4248;SDS011;8404;48.752;12.922;2022-09-29T09:42:17;4.03;;;2.42;;
4248;SDS011;8404;48.752;12.922;2022-09-29T09:44:50;4.68;;;3.00;;
4248;SDS011;8404;48.752;12.922;2022-09-29T09:47:24;2.67;;;1.88;;
4248;SDS011;8404;48.752;12.922;2022-09-29T09:49:55;3.40;;;1.95;;
4248;SDS011;8404;48.752;12.922;2022-09-29T09:52:28;3.00;;;1.75;;
4248;SDS011;8404;48.752;12.922;2022-09-29T09:55:05;3.50;;;1.85;;
4248;SDS011;8404;48.752;12.922;2022-09-29T09:57:44;2.90;;;1.95;;
4248;SDS011;8404;48.752;12.922;2022-09-29T10:00:27;5.13;;;2.85;;
4248;SDS011;8404;48.752;12.922;2022-09-29T10:03:00;4.68;;;2.83;;
4248;SDS011;8404;48.752;12.922;2022-09-29T10:05:31;2.40;;;1.50;;
4248;SDS011;8404;48.752;12.922;2022-09-29T10:08:04;6.43;;;3.78;;
4248;SDS011;8404;48.752;12.922;2022-09-29T10:10:36;5.05;;;3.13;;
4248;SDS011;8404;48.752;12.922;2022-09-29T10:13:25;3.22;;;2.05;;
4248;SDS011;8404;48.752;12.922;2022-09-29T10:15:55;2.97;;;1.98;;
4248;SDS011;8404;48.752;12.922;2022-09-29T10:18:28;6.05;;;1.73;;
4248;SDS011;8404;48.752;12.922;2022-09-29T10:20:58;3.35;;;1.80;;
4248;SDS011;8404;48.752;12.922;2022-09-29T10:23:28;3.33;;;1.88;;
4248;SDS011;8404;48.752;12.922;2022-09-29T10:26:03;4.00;;;2.15;;
4248;SDS011;8404;48.752;12.922;2022-09-29T10:28:41;2.95;;;1.67;;
4248;SDS011;8404;48.752;12.922;2022-09-29T10:31:15;2.63;;;1.70;;
4248;SDS011;8404;48.752;12.922;2022-09-29T10:33:54;2.60;;;1.02;;
4248;SDS011;8404;48.752;12.922;2022-09-29T10:36:25;4.22;;;1.63;;
4248;SDS011;8404;48.752;12.922;2022-09-29T10:38:55;1.75;;;1.05;;
4248;SDS011;8404;48.752;12.922;2022-09-29T10:41:28;2.20;;;1.23;;
4248;SDS011;8404;48.752;12.922;2022-09-29T10:43:58;2.38;;;1.10;;
4248;SDS011;8404;48.752;12.922;2022-09-29T10:46:48;3.35;;;1.48;;
4248;SDS011;8404;48.752;12.922;2022-09-29T10:49:24;2.53;;;1.17;;
4248;SDS011;8404;48.752;12.922;2022-09-29T10:51:56;2.33;;;1.35;;
4248;SDS011;8404;48.752;12.922;2022-09-29T10:54:29;1.85;;;0.98;;
4248;SDS011;8404;48.752;12.922;2022-09-29T10:56:59;3.03;;;1.48;;
4248;SDS011;8404;48.752;12.922;2022-09-29T10:59:45;2.08;;;1.30;;
4248;SDS011;8404;48.752;12.922;2022-09-29T11:02:16;2.10;;;1.60;;
4248;SDS011;8404;48.752;12.922;2022-09-29T11:04:50;2.10;;;1.30;;
4248;SDS011;8404;48.752;12.922;2022-09-29T11:07:20;2.20;;;1.30;;
4248;SDS011;8404;48.752;12.922;2022-09-29T11:09:48;1.48;;;1.10;;
4248;SDS011;8404;48.752;12.922;2022-09-29T11:12:32;1.52;;;0.90;;
4248;SDS011;8404;48.752;12.922;2022-09-29T11:15:20;1.10;;;0.77;;
4248;SDS011;8404;48.752;12.922;2022-09-29T11:20:19;3.40;;;1.08;;
4248;SDS011;8404;48.752;12.922;2022-09-29T11:22:55;1.85;;;1.13;;
4248;SDS011;8404;48.752;12.922;2022-09-29T11:25:51;1.67;;;1.20;;
4248;SDS011;8404;48.752;12.922;2022-09-29T11:28:42;1.27;;;0.82;;
4248;SDS011;8404;48.752;12.922;2022-09-29T11:31:28;1.50;;;0.90;;
4248;SDS011;8404;48.752;12.922;2022-09-29T11:37:02;2.88;;;1.15;;
4248;SDS011;8404;48.752;12.922;2022-09-29T11:39:43;2.08;;;1.17;;
4248;SDS011;8404;48.752;12.922;2022-09-29T11:42:17;5.43;;;3.47;;
4248;SDS011;8404;48.752;12.922;2022-09-29T11:44:59;3.65;;;2.80;;
4248;SDS011;8404;48.752;12.922;2022-09-29T11:47:35;6.85;;;6.15;;
4248;SDS011;8404;48.752;12.922;2022-09-29T11:50:18;4.72;;;3.60;;
4248;SDS011;8404;48.752;12.922;2022-09-29T11:55:27;1.90;;;1.27;;
4248;SDS011;8404;48.752;12.922;2022-09-29T11:58:06;1.92;;;1.10;;
4248;SDS011;8404;48.752;12.922;2022-09-29T12:00:49;3.70;;;1.10;;
4248;SDS011;8404;48.752;12.922;2022-09-29T12:03:38;2.92;;;1.27;;
4248;SDS011;8404;48.752;12.922;2022-09-29T12:06:15;2.50;;;1.20;;
4248;SDS011;8404;48.752;12.922;2022-09-29T12:09:01;2.65;;;1.30;;
4248;SDS011;8404;48.752;12.922;2022-09-29T12:11:43;3.33;;;1.95;;
4248;SDS011;8404;48.752;12.922;2022-09-29T12:14:45;1.45;;;1.10;;
4248;SDS011;8404;48.752;12.922;2022-09-29T12:17:27;2.75;;;1.80;;
4248;SDS011;8404;48.752;12.922;2022-09-29T12:20:03;1.65;;;1.05;;
4248;SDS011;8404;48.752;12.922;2022-09-29T12:22:39;2.50;;;1.52;;
4248;SDS011;8404;48.752;12.922;2022-09-29T12:25:11;3.25;;;2.15;;
4248;SDS011;8404;48.752;12.922;2022-09-29T12:27:42;3.33;;;2.20;;
4248;SDS011;8404;48.752;12.922;2022-09-29T12:30:13;2.33;;;1.40;;
4248;SDS011;8404;48.752;12.922;2022-09-29T12:32:45;4.30;;;3.90;;
4248;SDS011;8404;48.752;12.922;2022-09-29T12:35:19;10.68;;;8.55;;
4248;SDS011;8404;48.752;12.922;2022-09-29T12:37:53;3.50;;;3.05;;
4248;SDS011;8404;48.752;12.922;2022-09-29T12:40:27;2.53;;;1.60;;
4248;SDS011;8404;48.752;12.922;2022-09-29T12:43:04;2.05;;;1.85;;
4248;SDS011;8404;48.752;12.922;2022-09-29T12:45:41;3.00;;;2.40;;
4248;SDS011;8404;48.752;12.922;2022-09-29T12:48:21;3.72;;;2.00;;
4248;SDS011;8404;48.752;12.922;2022-09-29T12:51:00;2.97;;;1.50;;
4248;SDS011;8404;48.752;12.922;2022-09-29T12:53:36;2.90;;;1.38;;
4248;SDS011;8404;48.752;12.922;2022-09-29T12:56:27;5.15;;;2.00;;
4248;SDS011;8404;48.752;12.922;2022-09-29T12:59:00;4.43;;;3.03;;
4248;SDS011;8404;48.752;12.922;2022-09-29T13:01:32;2.75;;;1.65;;
4248;SDS011;8404;48.752;12.922;2022-09-29T13:04:19;4.18;;;3.17;;
4248;SDS011;8404;48.752;12.922;2022-09-29T13:07:20;3.05;;;1.80;;
4248;SDS011;8404;48.752;12.922;2022-09-29T13:10:18;4.20;;;3.80;;
4248;SDS011;8404;48.752;12.922;2022-09-29T13:13:03;2.73;;;2.00;;
4248;SDS011;8404;48.752;12.922;2022-09-29T13:15:49;3.15;;;1.73;;
4248;SDS011;8404;48.752;12.922;2022-09-29T13:18:28;4.20;;;2.95;;
4248;SDS011;8404;48.752;12.922;2022-09-29T13:21:26;3.35;;;1.80;;
4248;SDS011;8404;48.752;12.922;2022-09-29T13:27:09;2.53;;;2.10;;
4248;SDS011;8404;48.752;12.922;2022-09-29T13:29:47;2.72;;;1.92;;
4248;SDS011;8404;48.752;12.922;2022-09-29T13:32:19;2.88;;;1.40;;
4248;SDS011;8404;48.752;12.922;2022-09-29T13:34:51;8.98;;;6.50;;
4248;SDS011;8404;48.752;12.922;2022-09-29T13:37:22;5.40;;;4.90;;
4248;SDS011;8404;48.752;12.922;2022-09-29T13:39:56;4.10;;;3.20;;
4248;SDS011;8404;48.752;12.922;2022-09-29T13:42:41;4.45;;;2.30;;
4248;SDS011;8404;48.752;12.922;2022-09-29T13:45:14;3.17;;;2.42;;
4248;SDS011;8404;48.752;12.922;2022-09-29T13:48:32;3.13;;;2.00;;
4248;SDS011;8404;48.752;12.922;2022-09-29T13:51:25;2.58;;;1.88;;
4248;SDS011;8404;48.752;12.922;2022-09-29T13:54:25;2.38;;;1.90;;
4248;SDS011;8404;48.752;12.922;2022-09-29T13:57:00;8.00;;;5.15;;
4248;SDS011;8404;48.752;12.922;2022-09-29T14:00:04;3.20;;;2.17;;
4248;SDS011;8404;48.752;12.922;2022-09-29T14:09:03;5.50;;;3.75;;
4248;SDS011;8404;48.752;12.922;2022-09-29T14:11:34;5.68;;;4.55;;
4248;SDS011;8404;48.752;12.922;2022-09-29T14:14:04;5.30;;;4.07;;
4248;SDS011;8404;48.752;12.922;2022-09-29T14:16:38;8.10;;;6.65;;
4248;SDS011;8404;48.752;12.922;2022-09-29T14:19:26;3.20;;;2.30;;
4248;SDS011;8404;48.752;12.922;2022-09-29T14:22:04;7.70;;;5.20;;
4248;SDS011;8404;48.752;12.922;2022-09-29T14:24:52;5.03;;;3.80;;
4248;SDS011;8404;48.752;12.922;2022-09-29T14:27:27;4.10;;;3.28;;
4248;SDS011;8404;48.752;12.922;2022-09-29T14:30:05;7.93;;;3.80;;
4248;SDS011;8404;48.752;12.922;2022-09-29T14:32:42;4.68;;;2.30;;
4248;SDS011;8404;48.752;12.922;2022-09-29T14:35:24;5.18;;;4.68;;
4248;SDS011;8404;48.752;12.922;2022-09-29T14:38:01;4.97;;;3.47;;
4248;SDS011;8404;48.752;12.922;2022-09-29T14:40:32;3.80;;;2.55;;
4248;SDS011;8404;48.752;12.922;2022-09-29T14:43:13;5.60;;;3.47;;
4248;SDS011;8404;48.752;12.922;2022-09-29T14:45:51;4.93;;;3.35;;
4248;SDS011;8404;48.752;12.922;2022-09-29T14:48:50;12.07;;;7.70;;
4248;SDS011;8404;48.752;12.922;2022-09-29T14:51:44;5.43;;;4.10;;
4248;SDS011;8404;48.752;12.922;2022-09-29T14:54:27;5.70;;;4.20;;
4248;SDS011;8404;48.752;12.922;2022-09-29T14:57:12;3.75;;;3.08;;
4248;SDS011;8404;48.752;12.922;2022-09-29T15:00:00;6.35;;;3.58;;
4248;SDS011;8404;48.752;12.922;2022-09-29T15:02:40;5.18;;;3.70;;
4248;SDS011;8404;48.752;12.922;2022-09-29T15:05:11;4.32;;;3.55;;
4248;SDS011;8404;48.752;12.922;2022-09-29T15:07:41;4.07;;;3.05;;
4248;SDS011;8404;48.752;12.922;2022-09-29T15:10:20;4.90;;;3.78;;
4248;SDS011;8404;48.752;12.922;2022-09-29T15:12:51;4.20;;;3.55;;
4248;SDS011;8404;48.752;12.922;2022-09-29T15:15:27;4.35;;;3.33;;
4248;SDS011;8404;48.752;12.922;2022-09-29T15:18:03;4.50;;;3.20;;
4248;SDS011;8404;48.752;12.922;2022-09-29T15:20:46;4.22;;;3.15;;
4248;SDS011;8404;48.752;12.922;2022-09-29T15:23:27;5.50;;;3.97;;
4248;SDS011;8404;48.752;12.922;2022-09-29T15:26:12;4.28;;;3.00;;
4248;SDS011;8404;48.752;12.922;2022-09-29T15:28:41;5.72;;;3.67;;
4248;SDS011;8404;48.752;12.922;2022-09-29T15:31:16;4.05;;;3.55;;
4248;SDS011;8404;48.752;12.922;2022-09-29T15:33:48;7.03;;;4.63;;
4248;SDS011;8404;48.752;12.922;2022-09-29T15:36:17;7.63;;;5.25;;
4248;SDS011;8404;48.752;12.922;2022-09-29T15:38:50;5.78;;;4.43;;
4248;SDS011;8404;48.752;12.922;2022-09-29T15:41:21;8.55;;;5.55;;
4248;SDS011;8404;48.752;12.922;2022-09-29T15:43:57;8.27;;;5.18;;
4248;SDS011;8404;48.752;12.922;2022-09-29T15:46:33;6.97;;;4.95;;
4248;SDS011;8404;48.752;12.922;2022-09-29T15:51:53;19.48;;;16.77;;
4248;SDS011;8404;48.752;12.922;2022-09-29T15:54:24;5.97;;;5.28;;
4248;SDS011;8404;48.752;12.922;2022-09-29T15:56:59;11.13;;;9.93;;
4248;SDS011;8404;48.752;12.922;2022-09-29T15:59:45;7.50;;;6.80;;
4248;SDS011;8404;48.752;12.922;2022-09-29T16:02:20;7.65;;;6.45;;
4248;SDS011;8404;48.752;12.922;2022-09-29T16:04:53;9.88;;;5.78;;
4248;SDS011;8404;48.752;12.922;2022-09-29T16:07:25;8.50;;;7.18;;
4248;SDS011;8404;48.752;12.922;2022-09-29T16:09:59;6.78;;;5.80;;
4248;SDS011;8404;48.752;12.922;2022-09-29T16:12:34;9.05;;;5.82;;